createdAt,value
2022-09-26T00:00:20.866Z,139.06
2022-09-26T00:01:20.756Z,138.26
2022-09-26T00:02:20.686Z,137.80
2022-09-26T00:03:20.667Z,138.95
2022-09-26T00:04:23.285Z,138.14
2022-09-26T00:05:20.638Z,137.46
2022-09-26T00:06:20.800Z,138.26
2022-09-26T00:07:20.616Z,138.37
2022-09-26T00:08:20.606Z,137.91
2022-09-26T00:09:20.588Z,138.14
2022-09-26T00:10:20.587Z,138.26
2022-09-26T00:11:20.571Z,138.49
2022-09-26T00:12:21.012Z,138.37
2022-09-26T00:13:20.545Z,138.71
2022-09-26T00:14:20.536Z,139.18
2022-09-26T00:15:20.523Z,138.26
2022-09-26T00:16:20.586Z,138.60
2022-09-26T00:17:20.504Z,139.06
2022-09-26T00:18:20.660Z,138.83
2022-09-26T00:19:20.489Z,138.95
2022-09-26T00:20:20.482Z,139.99
2022-09-26T00:21:20.458Z,139.06
2022-09-26T00:22:20.455Z,139.18
2022-09-26T00:23:20.436Z,139.41
2022-09-26T00:24:20.746Z,139.18
2022-09-26T00:25:20.414Z,139.06
2022-09-26T00:26:20.405Z,139.18
2022-09-26T00:27:20.389Z,139.64
2022-09-26T00:28:20.382Z,138.37
2022-09-26T00:29:20.389Z,138.60
2022-09-26T00:30:20.550Z,137.57
2022-09-26T00:31:20.410Z,136.56
2022-09-26T00:32:20.336Z,136.56
2022-09-26T00:33:20.351Z,136.00
2022-09-26T00:34:20.317Z,135.78
2022-09-26T00:35:20.697Z,134.68
2022-09-26T00:36:20.308Z,134.58
2022-09-26T00:37:20.276Z,134.36
2022-09-26T00:38:20.265Z,134.04
2022-09-26T00:39:20.263Z,133.93
2022-09-26T00:40:20.343Z,133.39
2022-09-26T00:41:20.394Z,132.97
2022-09-26T00:42:20.233Z,132.02
2022-09-26T00:43:20.219Z,131.92
2022-09-26T00:44:20.215Z,131.50
2022-09-26T00:45:20.366Z,131.40
2022-09-26T00:46:20.254Z,130.68
2022-09-26T00:47:20.173Z,130.47
2022-09-26T00:48:20.164Z,129.76
2022-09-26T00:49:20.157Z,129.26
2022-09-26T00:50:20.353Z,129.06
2022-09-26T00:51:20.135Z,128.66
2022-09-26T00:52:20.120Z,128.66
2022-09-26T00:53:20.129Z,128.56
2022-09-26T00:54:20.095Z,128.27
2022-09-26T00:55:20.084Z,128.07
2022-09-26T00:56:20.425Z,128.27
2022-09-26T00:57:20.070Z,127.97
2022-09-26T00:58:20.065Z,128.17
2022-09-26T00:59:20.047Z,127.87
2022-09-26T01:00:20.029Z,127.97
2022-09-26T01:01:20.163Z,127.68
2022-09-26T01:02:20.393Z,127.97
2022-09-26T01:03:20.006Z,127.78
2022-09-26T01:04:20.001Z,128.17
2022-09-26T01:05:19.984Z,128.27
2022-09-26T01:06:19.972Z,128.66
2022-09-26T01:07:19.957Z,128.86
2022-09-26T01:08:20.117Z,129.26
2022-09-26T01:09:19.940Z,129.96
2022-09-26T01:10:19.925Z,129.76
2022-09-26T01:11:19.916Z,128.96
2022-09-26T01:12:19.908Z,128.76
2022-09-26T01:13:19.905Z,127.68
2022-09-26T01:14:20.045Z,127.29
2022-09-26T01:15:19.869Z,127.09
2022-09-26T01:16:19.909Z,127.48
2022-09-26T01:17:19.861Z,127.09
2022-09-26T01:18:19.835Z,126.71
2022-09-26T01:19:19.820Z,126.52
2022-09-26T01:20:19.989Z,126.71
2022-09-26T01:21:19.797Z,126.13
2022-09-26T01:22:19.790Z,126.32
2022-09-26T01:23:19.790Z,126.61
2022-09-26T01:24:19.767Z,126.04
2022-09-26T01:25:19.759Z,125.38
2022-09-26T01:26:19.910Z,125.28
2022-09-26T01:27:19.734Z,125.66
2022-09-26T01:28:19.727Z,125.38
2022-09-26T01:29:19.720Z,125.28
2022-09-26T01:30:19.706Z,125.38
2022-09-26T01:31:20.065Z,125.00
2022-09-26T01:32:19.685Z,125.00
2022-09-26T01:33:19.666Z,124.44
2022-09-26T01:34:19.670Z,124.63
2022-09-26T01:35:19.647Z,123.79
2022-09-26T01:36:19.640Z,123.89
2022-09-26T01:37:19.790Z,123.89
2022-09-26T01:38:19.616Z,123.70
2022-09-26T01:39:19.619Z,123.79
2022-09-26T01:40:19.655Z,124.07
2022-09-26T01:41:19.583Z,124.07
2022-09-26T01:42:19.574Z,123.98
2022-09-26T01:43:19.968Z,124.63
2022-09-26T01:44:19.549Z,124.81
2022-09-26T01:45:19.536Z,125.00
2022-09-26T01:46:19.622Z,125.47
2022-09-26T01:47:19.515Z,125.47
2022-09-26T01:48:19.505Z,125.75
2022-09-26T01:49:19.664Z,126.71
2022-09-26T01:50:19.483Z,126.04
2022-09-26T01:51:19.489Z,125.94
2022-09-26T01:52:19.482Z,126.04
2022-09-26T01:53:19.459Z,125.85
2022-09-26T01:54:19.457Z,125.94
2022-09-26T01:55:19.594Z,125.56
2022-09-26T01:56:19.444Z,125.85
2022-09-26T01:57:19.415Z,125.47
2022-09-26T01:58:19.406Z,125.09
2022-09-26T01:59:19.385Z,125.47
2022-09-26T02:00:19.547Z,124.63
2022-09-26T02:01:19.433Z,125.00
2022-09-26T02:02:19.466Z,124.81
2022-09-26T02:03:19.348Z,125.00
2022-09-26T02:04:19.329Z,124.63
2022-09-26T02:05:19.316Z,124.25
2022-09-26T02:06:19.469Z,123.98
2022-09-26T02:07:19.306Z,124.25
2022-09-26T02:08:19.286Z,124.25
2022-09-26T02:09:19.277Z,124.53
2022-09-26T02:10:19.272Z,124.53
2022-09-26T02:11:19.267Z,124.53
2022-09-26T02:12:19.425Z,124.63
2022-09-26T02:13:19.243Z,124.44
2022-09-26T02:14:19.225Z,124.63
2022-09-26T02:15:19.206Z,124.44
2022-09-26T02:16:19.275Z,124.53
2022-09-26T02:17:19.217Z,124.81
2022-09-26T02:18:19.549Z,125.09
2022-09-26T02:19:19.164Z,124.81
2022-09-26T02:20:19.156Z,125.00
2022-09-26T02:21:19.162Z,125.09
2022-09-26T02:22:19.153Z,125.09
2022-09-26T02:23:19.135Z,124.63
2022-09-26T02:24:19.503Z,124.44
2022-09-26T02:25:19.104Z,124.72
2022-09-26T02:26:19.098Z,124.25
2022-09-26T02:27:19.090Z,124.53
2022-09-26T02:28:19.080Z,124.53
2022-09-26T02:29:19.063Z,125.28
2022-09-26T02:30:19.753Z,125.66
2022-09-26T02:31:19.121Z,125.85
2022-09-26T02:32:19.166Z,125.75
2022-09-26T02:33:19.016Z,125.56
2022-09-26T02:34:19.020Z,125.85
2022-09-26T02:35:18.997Z,125.47
2022-09-26T02:36:19.203Z,125.66
2022-09-26T02:37:18.972Z,126.04
2022-09-26T02:38:18.967Z,126.23
2022-09-26T02:39:18.945Z,126.52
2022-09-26T02:40:19.023Z,126.23
2022-09-26T02:41:18.937Z,125.75
2022-09-26T02:42:19.076Z,125.47
2022-09-26T02:43:18.909Z,125.28
2022-09-26T02:44:18.900Z,124.72
2022-09-26T02:45:18.880Z,124.81
2022-09-26T02:46:18.967Z,124.81
2022-09-26T02:47:19.018Z,125.00
2022-09-26T02:48:18.859Z,125.00
2022-09-26T02:49:18.850Z,125.19
2022-09-26T02:50:18.841Z,125.19
2022-09-26T02:51:18.817Z,125.19
2022-09-26T02:52:18.807Z,125.56
2022-09-26T02:53:18.959Z,125.94
2022-09-26T02:54:18.789Z,126.04
2022-09-26T02:55:18.784Z,126.52
2022-09-26T02:56:18.766Z,126.52
2022-09-26T02:57:18.756Z,126.13
2022-09-26T02:58:18.748Z,126.13
2022-09-26T02:59:19.126Z,126.32
2022-09-26T03:00:18.717Z,126.23
2022-09-26T03:01:18.760Z,125.56
2022-09-26T03:02:18.719Z,125.47
2022-09-26T03:03:18.686Z,125.09
2022-09-26T03:04:18.753Z,124.72
2022-09-26T03:05:18.836Z,124.63
2022-09-26T03:06:18.675Z,124.16
2022-09-26T03:07:18.647Z,124.07
2022-09-26T03:08:18.639Z,123.52
2022-09-26T03:09:18.629Z,123.25
2022-09-26T03:10:18.871Z,123.25
2022-09-26T03:11:18.615Z,122.97
2022-09-26T03:12:18.593Z,123.15
2022-09-26T03:13:18.591Z,122.97
2022-09-26T03:14:18.572Z,123.06
2022-09-26T03:15:18.566Z,122.97
2022-09-26T03:16:18.867Z,122.70
2022-09-26T03:17:18.540Z,122.70
2022-09-26T03:18:18.528Z,122.88
2022-09-26T03:19:18.524Z,123.06
2022-09-26T03:20:18.497Z,123.25
2022-09-26T03:21:18.492Z,123.61
2022-09-26T03:22:18.636Z,123.52
2022-09-26T03:23:18.497Z,123.52
2022-09-26T03:24:18.461Z,123.89
2022-09-26T03:25:18.445Z,123.79
2022-09-26T03:26:18.441Z,124.25
2022-09-26T03:27:18.436Z,124.44
2022-09-26T03:28:18.569Z,124.25
2022-09-26T03:29:18.414Z,125.19
2022-09-26T03:30:18.642Z,125.28
2022-09-26T03:31:18.413Z,125.94
2022-09-26T03:32:18.380Z,126.32
2022-09-26T03:33:18.382Z,126.52
2022-09-26T03:34:18.348Z,126.23
2022-09-26T03:35:18.352Z,126.52
2022-09-26T03:36:18.479Z,126.32
2022-09-26T03:37:18.640Z,126.71
2022-09-26T03:38:18.321Z,126.90
2022-09-26T03:39:18.299Z,126.42
2022-09-26T03:40:18.344Z,126.42
2022-09-26T03:41:18.282Z,126.23
2022-09-26T03:42:18.266Z,125.94
2022-09-26T03:43:18.444Z,125.66
2022-09-26T03:44:18.240Z,126.52
2022-09-26T03:45:18.235Z,127.09
2022-09-26T03:46:18.342Z,127.87
2022-09-26T03:47:18.229Z,128.46
2022-09-26T03:48:18.198Z,128.56
2022-09-26T03:49:18.396Z,128.07
2022-09-26T03:50:18.178Z,127.58
2022-09-26T03:51:18.165Z,128.07
2022-09-26T03:52:18.163Z,127.87
2022-09-26T03:53:18.156Z,126.80
2022-09-26T03:54:18.137Z,126.61
2022-09-26T03:55:18.835Z,126.32
2022-09-26T03:56:18.121Z,125.75
2022-09-26T03:57:18.097Z,125.28
2022-09-26T03:58:18.102Z,125.09
2022-09-26T03:59:18.076Z,124.91
2022-09-26T04:00:18.065Z,123.52
2022-09-26T04:01:18.294Z,123.79
2022-09-26T04:02:18.213Z,123.52
2022-09-26T04:03:18.052Z,123.34
2022-09-26T04:04:18.022Z,123.34
2022-09-26T04:05:18.020Z,122.88
2022-09-26T04:06:18.011Z,123.06
2022-09-26T04:07:18.327Z,123.25
2022-09-26T04:08:17.985Z,123.52
2022-09-26T04:09:18.105Z,123.52
2022-09-26T04:10:17.960Z,123.70
2022-09-26T04:11:17.961Z,122.43
2022-09-26T04:12:17.948Z,123.06
2022-09-26T04:13:46.496Z,123.43
2022-09-26T04:14:18.911Z,122.61
2022-09-26T04:15:17.929Z,123.25
2022-09-26T04:16:17.946Z,122.70
2022-09-26T04:17:17.899Z,122.25
2022-09-26T04:18:17.886Z,121.81
2022-09-26T04:19:18.058Z,121.28
2022-09-26T04:20:17.856Z,120.92
2022-09-26T04:21:17.844Z,120.31
2022-09-26T04:22:17.826Z,119.79
2022-09-26T04:23:17.820Z,118.77
2022-09-26T04:24:17.806Z,118.43
2022-09-26T04:25:17.978Z,118.02
2022-09-26T04:26:22.745Z,117.52
2022-09-26T04:27:18.779Z,116.13
2022-09-26T04:28:17.765Z,115.64
2022-09-26T04:29:17.771Z,115.09
2022-09-26T04:30:17.926Z,115.32
2022-09-26T04:31:17.795Z,113.75
2022-09-26T04:32:17.715Z,113.52
2022-09-26T04:33:17.714Z,112.98
2022-09-26T04:34:17.695Z,113.29
2022-09-26T04:35:17.699Z,113.14
2022-09-26T04:36:17.838Z,113.06
2022-09-26T04:37:17.665Z,113.60
2022-09-26T04:38:17.661Z,113.21
2022-09-26T04:39:17.636Z,112.68
2022-09-26T04:40:17.771Z,113.44
2022-09-26T04:41:17.630Z,115.17
2022-09-26T04:42:18.354Z,115.09
2022-09-26T04:43:17.612Z,117.11
2022-09-26T04:44:17.588Z,117.19
2022-09-26T04:45:17.581Z,118.77
2022-09-26T04:46:21.594Z,119.97
2022-09-26T04:47:18.560Z,119.79
2022-09-26T04:48:17.711Z,120.23
2022-09-26T04:49:17.541Z,121.81
2022-09-26T04:50:17.516Z,121.54
2022-09-26T04:51:17.508Z,122.43
2022-09-26T04:52:17.508Z,123.15
2022-09-26T04:53:17.485Z,123.43
2022-09-26T04:54:17.734Z,123.61
2022-09-26T04:55:17.471Z,123.89
2022-09-26T04:56:17.456Z,124.25
2022-09-26T04:57:19.911Z,123.89
2022-09-26T04:58:17.446Z,124.25
2022-09-26T04:59:17.426Z,125.38
2022-09-26T05:00:17.807Z,125.19
2022-09-26T05:01:17.458Z,124.81
2022-09-26T05:02:17.441Z,124.91
2022-09-26T05:03:17.375Z,126.42
2022-09-26T05:04:17.373Z,125.19
2022-09-26T05:05:17.368Z,126.32
2022-09-26T05:06:17.975Z,126.23
2022-09-26T05:07:17.385Z,127.29
2022-09-26T05:08:17.352Z,127.87
2022-09-26T05:09:17.326Z,127.09
2022-09-26T05:10:17.308Z,127.58
2022-09-26T05:11:17.306Z,128.46
2022-09-26T05:12:17.630Z,127.87
2022-09-26T05:13:17.286Z,128.07
2022-09-26T05:14:17.285Z,127.39
2022-09-26T05:15:17.244Z,126.42
2022-09-26T05:16:17.363Z,126.13
2022-09-26T05:17:17.277Z,124.25
2022-09-26T05:18:17.390Z,122.97
2022-09-26T05:19:17.260Z,121.28
2022-09-26T05:20:17.191Z,120.75
2022-09-26T05:21:17.202Z,119.79
2022-09-26T05:22:17.169Z,119.62
2022-09-26T05:23:17.167Z,119.45
2022-09-26T05:24:17.577Z,119.28
2022-09-26T05:25:17.143Z,119.97
2022-09-26T05:26:17.131Z,119.28
2022-09-26T05:27:17.117Z,118.94
2022-09-26T05:28:17.111Z,118.27
2022-09-26T05:29:17.150Z,118.35
2022-09-26T05:30:17.251Z,118.52
2022-09-26T05:31:17.140Z,118.02
2022-09-26T05:32:17.075Z,118.35
2022-09-26T05:33:17.055Z,119.03
2022-09-26T05:34:19.879Z,118.94
2022-09-26T05:35:17.039Z,118.60
2022-09-26T05:36:17.203Z,118.60
2022-09-26T05:37:17.018Z,120.14
2022-09-26T05:38:16.988Z,119.11
2022-09-26T05:39:16.995Z,120.05
2022-09-26T05:40:17.041Z,121.36
2022-09-26T05:41:16.972Z,121.89
2022-09-26T05:42:17.111Z,123.43
2022-09-26T05:43:16.946Z,122.16
2022-09-26T05:44:16.964Z,122.61
2022-09-26T05:45:16.925Z,122.43
2022-09-26T05:46:16.953Z,122.97
2022-09-26T05:47:16.912Z,122.97
2022-09-26T05:48:17.067Z,124.07
2022-09-26T05:49:16.882Z,123.70
2022-09-26T05:50:16.866Z,124.44
2022-09-26T05:51:16.864Z,124.72
2022-09-26T05:52:16.850Z,125.47
2022-09-26T05:53:16.838Z,125.75
2022-09-26T05:54:17.067Z,126.13
2022-09-26T05:55:16.815Z,126.61
2022-09-26T05:56:19.023Z,127.00
2022-09-26T05:57:16.803Z,127.87
2022-09-26T05:58:16.776Z,128.07
2022-09-26T05:59:16.783Z,128.76
2022-09-26T06:00:16.919Z,129.46
2022-09-26T06:01:16.832Z,129.66
2022-09-26T06:02:20.715Z,131.19
2022-09-26T06:03:16.747Z,131.19
2022-09-26T06:04:16.716Z,132.34
2022-09-26T06:05:16.702Z,132.44
2022-09-26T06:06:16.950Z,132.54
2022-09-26T06:07:16.687Z,133.93
2022-09-26T06:08:16.673Z,133.18
2022-09-26T06:09:16.789Z,133.07
2022-09-26T06:10:16.680Z,134.79
2022-09-26T06:11:16.637Z,135.78
2022-09-26T06:12:16.793Z,135.56
2022-09-26T06:13:16.617Z,136.78
2022-09-26T06:14:16.616Z,137.23
2022-09-26T06:15:16.592Z,138.49
2022-09-26T06:16:16.632Z,139.88
2022-09-26T06:17:16.575Z,142.02
2022-09-26T06:18:16.727Z,143.24
2022-09-26T06:19:19.456Z,144.11
2022-09-26T06:20:17.540Z,145.23
2022-09-26T06:21:16.565Z,147.29
2022-09-26T06:22:16.517Z,147.81
2022-09-26T06:23:16.513Z,149.13
2022-09-26T06:24:16.819Z,149.13
2022-09-26T06:25:16.583Z,151.57
2022-09-26T06:26:16.472Z,152.96
2022-09-26T06:27:16.477Z,154.37
2022-09-26T06:28:16.447Z,156.25
2022-09-26T06:29:16.436Z,156.54
2022-09-26T06:30:16.624Z,158.63
2022-09-26T06:31:16.501Z,159.23
2022-09-26T06:32:16.403Z,159.84
2022-09-26T06:33:16.396Z,161.23
2022-09-26T06:34:16.513Z,163.44
2022-09-26T06:35:16.375Z,163.44
2022-09-26T06:36:16.709Z,164.09
2022-09-26T06:37:16.365Z,166.21
2022-09-26T06:38:16.344Z,166.38
2022-09-26T06:39:16.617Z,167.04
2022-09-26T06:40:16.362Z,166.88
2022-09-26T06:41:16.309Z,166.04
2022-09-26T06:42:16.501Z,165.55
2022-09-26T06:43:16.289Z,164.90
2022-09-26T06:44:16.293Z,164.57
2022-09-26T06:45:16.274Z,163.44
2022-09-26T06:46:16.388Z,162.17
2022-09-26T06:47:16.294Z,163.12
2022-09-26T06:48:18.967Z,164.25
2022-09-26T06:49:17.231Z,164.73
2022-09-26T06:50:16.213Z,164.09
2022-09-26T06:51:16.205Z,162.80
2022-09-26T06:52:16.191Z,162.80
2022-09-26T06:53:16.187Z,163.12
2022-09-26T06:54:16.527Z,162.80
2022-09-26T06:55:16.159Z,162.49
2022-09-26T06:56:16.147Z,162.65
2022-09-26T06:57:16.149Z,163.92
2022-09-26T06:58:16.127Z,167.21
2022-09-26T06:59:16.208Z,168.22
2022-09-26T07:00:16.310Z,169.24
2022-09-26T07:01:16.227Z,171.86
2022-09-26T07:02:16.153Z,171.33
2022-09-26T07:03:16.096Z,170.98
2022-09-26T07:04:16.066Z,171.15
2022-09-26T07:05:16.055Z,170.11
2022-09-26T07:06:16.399Z,170.28
2022-09-26T07:07:16.051Z,170.28
2022-09-26T07:08:16.025Z,171.51
2022-09-26T07:09:16.369Z,173.47
2022-09-26T07:10:16.072Z,174.01
2022-09-26T07:11:42.122Z,174.74
2022-09-26T07:12:17.135Z,173.83
2022-09-26T07:13:15.959Z,177.15
2022-09-26T07:14:15.955Z,176.59
2022-09-26T07:15:15.964Z,175.10
2022-09-26T07:16:16.010Z,176.03
2022-09-26T07:17:15.926Z,176.40
2022-09-26T07:18:16.159Z,177.71
2022-09-26T07:21:33.874Z,205.12
2022-09-26T07:22:33.869Z,194.19
2022-09-26T07:23:34.009Z,191.25
2022-09-26T07:24:33.838Z,186.25
2022-09-26T07:25:33.819Z,186.45
2022-09-26T07:26:33.879Z,185.62
2022-09-26T07:27:33.811Z,185.01
2022-09-26T07:28:33.807Z,185.42
2022-09-26T07:29:33.953Z,185.42
2022-09-26T07:30:33.789Z,185.62
2022-09-26T07:31:33.859Z,186.36
2022-09-26T07:32:33.755Z,189.04
2022-09-26T07:33:33.735Z,190.25
2022-09-26T07:34:33.739Z,189.15
2022-09-26T07:35:33.880Z,190.14
2022-09-26T07:36:33.745Z,189.48
2022-09-26T07:37:33.670Z,189.70
2022-09-26T07:38:33.678Z,191.58
2022-09-26T07:39:33.685Z,192.14
2022-09-26T07:40:33.682Z,191.81
2022-09-26T07:41:33.673Z,191.70
2022-09-26T07:42:33.634Z,192.03
2022-09-26T07:44:19.347Z,192.71
2022-09-26T07:45:20.394Z,195.00
2022-09-26T07:45:34.843Z,195.93
2022-09-26T07:46:33.676Z,197.82
2022-09-26T07:47:33.580Z,198.54
2022-09-26T07:48:33.566Z,199.02
2022-09-26T07:49:33.551Z,201.34
2022-09-26T07:50:33.545Z,201.96
2022-09-26T07:51:34.249Z,204.22
2022-09-26T07:52:33.520Z,206.54
2022-09-26T07:53:33.517Z,208.37
2022-09-26T07:54:33.501Z,212.01
2022-09-26T07:55:33.491Z,212.42
2022-09-26T07:56:33.484Z,213.66
2022-09-26T07:57:33.678Z,213.66
2022-09-26T07:58:33.459Z,214.64
2022-09-26T07:59:33.448Z,215.07
2022-09-26T08:00:33.434Z,216.91
2022-09-26T08:01:33.513Z,217.78
2022-09-26T08:02:33.474Z,219.09
2022-09-26T08:03:33.561Z,221.01
2022-09-26T08:04:33.391Z,219.82
2022-09-26T08:05:33.370Z,223.57
2022-09-26T08:06:33.369Z,231.61
2022-09-26T08:07:33.358Z,235.60
2022-09-26T08:08:33.351Z,238.86
2022-09-26T08:09:33.538Z,241.32
2022-09-26T08:10:33.329Z,241.50
2022-09-26T08:11:33.319Z,239.56
2022-09-26T08:12:33.478Z,241.32
2022-09-26T08:13:33.298Z,246.03
2022-09-26T08:14:33.297Z,249.39
2022-09-26T08:15:33.613Z,250.92
2022-09-26T08:16:33.409Z,247.14
2022-09-26T08:17:33.256Z,248.64
2022-09-26T08:18:33.239Z,253.24
2022-09-26T08:19:33.238Z,256.41
2022-09-26T08:20:33.222Z,258.43
2022-09-26T08:21:33.473Z,259.25
2022-09-26T08:22:33.194Z,261.31
2022-09-26T08:23:33.186Z,264.47
2022-09-26T08:24:33.176Z,262.15
2022-09-26T08:25:33.173Z,260.48
2022-09-26T08:26:33.159Z,259.45
2022-09-26T08:27:33.303Z,264.26
2022-09-26T08:28:33.141Z,262.57
2022-09-26T08:29:33.119Z,261.52
2022-09-26T08:30:33.123Z,260.48
2022-09-26T08:31:33.190Z,260.27
2022-09-26T08:32:33.250Z,260.89
2022-09-26T08:33:33.089Z,261.52
2022-09-26T08:34:33.059Z,261.94
2022-09-26T08:35:33.050Z,262.57
2022-09-26T08:36:33.038Z,265.97
2022-09-26T08:37:33.196Z,268.80
2022-09-26T08:38:33.044Z,268.80
2022-09-26T08:39:33.648Z,271.02
2022-09-26T08:40:33.036Z,272.37
2022-09-26T08:41:32.979Z,277.91
2022-09-26T08:42:32.978Z,280.29
2022-09-26T08:43:33.109Z,285.90
2022-09-26T08:44:32.954Z,287.40
2022-09-26T08:45:32.939Z,288.67
2022-09-26T08:46:33.042Z,295.43
2022-09-26T08:47:32.928Z,299.47
2022-09-26T08:48:33.127Z,298.38
2022-09-26T08:49:32.894Z,305.89
2022-09-26T08:50:32.905Z,315.00
2022-09-26T08:51:32.886Z,318.36
2022-09-26T08:52:32.878Z,324.34
2022-09-26T08:53:32.854Z,326.92
2022-09-26T08:54:33.244Z,330.55
2022-09-26T08:55:32.834Z,332.22
2022-09-26T08:56:32.819Z,332.55
2022-09-26T08:57:32.805Z,330.55
2022-09-26T08:58:32.790Z,331.21
2022-09-26T08:59:32.785Z,327.58
2022-09-26T09:00:32.932Z,329.55
2022-09-26T09:01:32.819Z,331.21
2022-09-26T09:02:32.889Z,334.93
2022-09-26T09:03:32.732Z,334.25
2022-09-26T09:04:32.731Z,332.89
2022-09-26T09:05:32.731Z,328.56
2022-09-26T09:06:33.074Z,330.21
2022-09-26T09:07:32.690Z,337.69
2022-09-26T09:08:32.701Z,345.51
2022-09-26T09:09:32.674Z,344.06
2022-09-26T09:10:32.673Z,341.55
2022-09-26T09:11:32.650Z,334.93
2022-09-26T09:12:32.865Z,337.69
2022-09-26T09:13:32.630Z,334.93
2022-09-26T09:14:32.632Z,339.43
2022-09-26T09:15:32.611Z,339.79
2022-09-26T09:16:32.659Z,345.15
2022-09-26T09:17:32.588Z,353.71
2022-09-26T09:18:32.762Z,356.39
2022-09-26T09:19:32.991Z,358.73
2022-09-26T09:20:32.563Z,359.91
2022-09-26T09:21:32.562Z,359.13
2022-09-26T09:22:32.559Z,357.95
2022-09-26T09:23:32.524Z,359.91
2022-09-26T09:24:32.513Z,366.75
2022-09-26T09:25:32.893Z,373.01
2022-09-26T09:28:33.481Z,388.37
2022-09-26T09:29:32.456Z,390.65
2022-09-26T09:30:32.449Z,391.79
2022-09-26T09:31:32.666Z,400.50
2022-09-26T09:32:32.433Z,400.74
2022-09-26T09:33:32.423Z,404.14
2022-09-26T09:34:32.414Z,404.14
2022-09-26T09:35:32.400Z,402.43
2022-09-26T09:36:32.400Z,405.12
2022-09-26T09:37:32.601Z,400.50
2022-09-26T09:38:32.362Z,400.02
2022-09-26T09:39:32.349Z,401.22
2022-09-26T09:40:32.451Z,398.11
2022-09-26T09:41:32.340Z,397.63
2022-09-26T09:42:32.356Z,405.37
2022-09-26T09:43:32.471Z,409.10
2022-09-26T09:44:32.306Z,406.61
2022-09-26T09:45:32.282Z,409.85
2022-09-26T09:46:32.302Z,406.85
2022-09-26T09:47:32.259Z,406.61
2022-09-26T09:48:32.251Z,402.68
2022-09-26T09:49:32.625Z,398.11
2022-09-26T09:50:32.391Z,392.02
2022-09-26T09:51:35.559Z,394.81
2022-09-26T09:52:33.214Z,400.98
2022-09-26T09:53:32.201Z,404.63
2022-09-26T09:54:32.196Z,400.50
2022-09-26T09:55:32.326Z,399.78
2022-09-26T09:56:32.172Z,393.64
2022-09-26T09:57:32.163Z,397.63
2022-09-26T09:58:32.132Z,396.69
2022-09-26T09:59:32.131Z,396.69
2022-09-26T10:00:32.311Z,397.63
2022-09-26T10:01:32.131Z,394.58
2022-09-26T10:02:32.164Z,400.02
2022-09-26T10:03:32.080Z,392.95
2022-09-26T10:04:32.088Z,391.33
2022-09-26T10:05:32.068Z,392.95
2022-09-26T10:06:45.670Z,397.87
2022-09-26T10:07:33.032Z,399.54
2022-09-26T10:08:32.038Z,400.50
2022-09-26T10:09:36.269Z,398.35
2022-09-26T10:10:33.012Z,400.26
2022-09-26T10:11:32.147Z,393.88
2022-09-26T10:12:32.350Z,392.95
2022-09-26T10:13:31.982Z,397.16
2022-09-26T10:14:31.969Z,399.30
2022-09-26T10:15:31.986Z,403.65
2022-09-26T10:16:32.023Z,404.63
2022-09-26T10:17:32.048Z,407.10
2022-09-26T10:18:32.143Z,404.88
2022-09-26T10:19:31.912Z,405.37
2022-09-26T10:20:31.899Z,404.88
2022-09-26T10:21:31.923Z,405.12
2022-09-26T10:22:31.873Z,406.61
2022-09-26T10:23:31.871Z,402.43
2022-09-26T10:24:32.141Z,400.50
2022-09-26T10:25:31.852Z,402.19
2022-09-26T10:26:31.848Z,400.98
2022-09-26T10:27:31.842Z,403.90
2022-09-26T10:28:31.813Z,407.10
2022-09-26T10:29:31.792Z,407.60
2022-09-26T10:30:32.049Z,409.10
2022-09-26T10:31:31.864Z,411.62
2022-09-26T10:32:31.773Z,413.67
2022-09-26T10:33:31.757Z,415.99
2022-09-26T10:34:31.754Z,420.45
2022-09-26T10:35:31.744Z,418.86
2022-09-26T10:36:31.909Z,415.47
2022-09-26T10:37:31.715Z,417.29
2022-09-26T10:38:31.713Z,420.98
2022-09-26T10:39:31.689Z,418.86
2022-09-26T10:40:31.897Z,419.65
2022-09-26T10:41:31.673Z,420.18
2022-09-26T10:42:32.535Z,419.39
2022-09-26T10:43:31.646Z,420.71
2022-09-26T10:44:31.633Z,422.05
2022-09-26T10:45:31.625Z,422.58
2022-09-26T10:46:31.917Z,424.73
2022-09-26T10:47:31.618Z,423.12
2022-09-26T10:48:31.598Z,425.55
2022-09-26T10:49:31.587Z,423.92
2022-09-26T10:50:31.574Z,422.58
2022-09-26T10:51:31.560Z,427.18
2022-09-26T10:52:31.895Z,429.94
2022-09-26T10:53:31.537Z,428.28
2022-09-26T10:54:31.525Z,429.38
2022-09-26T10:55:31.534Z,429.66
2022-09-26T10:56:31.537Z,426.36
2022-09-26T10:57:31.474Z,427.18
2022-09-26T10:58:31.716Z,433.85
2022-09-26T10:59:31.479Z,439.28
2022-09-26T11:00:31.487Z,442.78
2022-09-26T11:01:31.598Z,443.08
2022-09-26T11:02:31.442Z,448.44
2022-09-26T11:03:31.473Z,443.67
2022-09-26T11:04:31.589Z,441.61
2022-09-26T11:05:31.403Z,441.32
2022-09-26T11:06:31.423Z,440.73
2022-09-26T11:07:31.392Z,440.15
2022-09-26T11:08:31.384Z,441.90
2022-09-26T11:09:31.355Z,436.41
2022-09-26T11:10:31.518Z,433.57
2022-09-26T11:11:31.345Z,431.61
2022-09-26T11:12:31.341Z,430.49
2022-09-26T11:13:31.318Z,427.18
2022-09-26T11:14:31.319Z,426.64
2022-09-26T11:15:31.330Z,427.18
2022-09-26T11:16:34.945Z,424.46
2022-09-26T11:17:32.278Z,423.65
2022-09-26T11:18:31.257Z,425.55
2022-09-26T11:19:31.255Z,424.19
2022-09-26T11:20:31.245Z,423.65
2022-09-26T11:21:31.239Z,421.78
2022-09-26T11:22:31.383Z,422.31
2022-09-26T11:23:31.214Z,421.78
2022-09-26T11:24:31.210Z,420.45
2022-09-26T11:25:31.209Z,423.39
2022-09-26T11:26:31.177Z,428.83
2022-09-26T11:27:31.183Z,431.33
2022-09-26T11:28:31.326Z,433.29
2022-09-26T11:29:31.143Z,436.69
2022-09-26T11:30:31.128Z,437.55
2022-09-26T11:31:31.197Z,439.28
2022-09-26T11:32:31.113Z,440.73
2022-09-26T11:33:31.351Z,444.26
2022-09-26T11:34:31.095Z,449.05
2022-09-26T11:35:31.087Z,449.05
2022-09-26T11:36:31.067Z,450.26
2022-09-26T11:37:31.100Z,450.56
2022-09-26T11:38:31.045Z,446.64
2022-09-26T11:39:31.200Z,454.25
2022-09-26T11:40:31.095Z,451.48
2022-09-26T11:41:31.017Z,455.49
2022-09-26T11:42:30.998Z,457.36
2022-09-26T11:43:30.986Z,458.93
2022-09-26T11:44:30.983Z,459.57
2022-09-26T11:45:34.876Z,457.36
2022-09-26T11:46:32.005Z,452.70
2022-09-26T11:47:30.946Z,455.80
2022-09-26T11:48:31.016Z,455.80
2022-09-26T11:49:30.932Z,454.86
2022-09-26T11:50:30.914Z,455.18
2022-09-26T11:51:31.316Z,459.25
2022-09-26T11:52:30.897Z,458.93
2022-09-26T11:53:30.878Z,464.05
2022-09-26T11:54:30.895Z,464.69
2022-09-26T11:55:30.900Z,468.61
2022-09-26T11:56:30.895Z,479.05
2022-09-26T11:57:31.022Z,485.32
2022-09-26T11:58:30.821Z,489.96
2022-09-26T11:59:30.833Z,492.49
2022-09-26T12:00:30.806Z,496.89
2022-09-26T12:01:30.795Z,495.79
2022-09-26T12:02:31.005Z,496.52
2022-09-26T12:03:31.086Z,498.01
2022-09-26T12:04:30.797Z,496.89
2022-09-26T12:05:30.752Z,503.27
2022-09-26T12:06:30.755Z,502.51
2022-09-26T12:07:30.729Z,507.10
2022-09-26T12:08:30.748Z,506.71
2022-09-26T12:09:30.888Z,510.59
2022-09-26T12:10:30.690Z,504.03
2022-09-26T12:11:30.687Z,501.76
2022-09-26T12:12:30.670Z,504.03
2022-09-26T12:13:30.659Z,498.75
2022-09-26T12:14:30.661Z,494.32
2022-09-26T12:15:30.973Z,493.58
2022-09-26T12:16:30.711Z,493.58
2022-09-26T12:17:30.620Z,486.38
2022-09-26T12:18:30.635Z,486.74
2022-09-26T12:19:30.600Z,488.52
2022-09-26T12:20:30.592Z,485.67
2022-09-26T12:21:30.800Z,486.38
2022-09-26T12:22:30.579Z,481.47
2022-09-26T12:23:30.559Z,481.82
2022-09-26T12:24:30.550Z,485.32
2022-09-26T12:25:30.535Z,478.36
2022-09-26T12:26:30.526Z,473.94
2022-09-26T12:27:30.845Z,469.93
2022-09-26T12:28:30.489Z,465.02
2022-09-26T12:29:30.492Z,460.20
2022-09-26T12:30:30.475Z,460.20
2022-09-26T12:31:30.550Z,461.48
2022-09-26T12:32:30.450Z,467.62